MDT,Max TemperatureF,Mean TemperatureF,Min TemperatureF,Max Dew PointF,MeanDew PointF,Min DewpointF,Max Humidity, Mean Humidity, Min Humidity, Max Sea Level PressureIn, Mean Sea Level PressureIn, Min Sea Level PressureIn, Max VisibilityMiles, Mean VisibilityMiles, Min VisibilityMiles, Max Wind SpeedMPH, Mean Wind SpeedMPH, Max Gust SpeedMPH,PrecipitationIn, CloudCover, Events, WindDirDegrees
2013-10-1,66,54,41,35,31,28,70,47,24,29.93,29.86,29.71,10,10,10,25,12,31,0.00,0,,251
2013-10-2,65,54,42,38,34,28,66,47,27,30.03,29.98,29.90,10,10,10,20,9,23,0.00,2,,324
2013-10-3,54,48,42,37,35,33,76,61,46,30.20,30.08,30.00,10,10,10,20,10,25,0.00,7,,46
2013-10-4,43,38,33,38,33,28,92,84,75,30.36,30.25,30.18,10,5,0,24,17,31,0.35,8,Fog-Rain-Snow,16
2013-10-5,49,39,28,29,26,23,85,62,39,30.20,30.14,30.09,10,10,10,25,14,36,0.00,3,,337
2013-10-6,70,49,28,39,33,23,82,57,31,30.10,30.04,29.96,10,10,10,21,9,31,0.00,0,,279
2013-10-7,75,56,36,42,37,33,92,59,25,29.96,29.81,29.62,10,10,10,18,9,30,0.00,0,,191
2013-10-8,67,54,41,40,35,31,89,58,26,29.91,29.72,29.57,10,10,7,22,8,25,0.00,0,,312
2013-10-9,65,51,36,38,33,29,76,52,28,30.07,30.01,29.91,10,10,10,10,6,12,0.00,1,,357
2013-10-10,65,51,36,49,41,31,89,70,51,29.94,29.78,29.61,10,10,9,14,5,18,0.01,2,,97
2013-10-11,53,47,41,52,44,32,100,84,67,29.80,29.56,29.47,10,5,1,37,21,46,2.39,8,Rain,332
2013-10-12,54,42,30,32,27,24,78,55,32,30.26,30.08,29.83,10,10,10,24,12,31,0.00,1,,287
2013-10-13,56,41,26,38,31,22,86,65,43,30.34,30.28,30.18,10,10,9,22,10,28,0.06,3,Rain,101
2013-10-14,42,38,33,40,37,32,96,91,86,30.25,30.12,30.03,8,4,2,28,18,35,1.20,8,Rain-Snow,29
2013-10-15,49,40,30,34,31,25,92,71,50,30.30,30.22,30.11,10,10,6,24,10,32,0.02,3,Rain-Snow,314
2013-10-16,59,45,31,36,31,26,92,64,36,30.08,29.98,29.89,10,10,6,20,10,26,0.09,1,Rain,286
2013-10-17,47,39,30,34,29,24,92,69,45,30.14,30.08,30.01,10,10,7,20,11,24,0.03,5,Rain,304
2013-10-18,47,40,33,36,32,28,92,73,53,30.09,30.00,29.84,10,9,2,25,13,31,0.03,8,Snow,284
2013-10-19,59,47,35,36,34,31,85,63,40,29.84,29.75,29.65,10,10,10,22,9,29,0.00,6,,282
2013-10-20,46,37,28,38,32,23,92,78,64,30.06,29.87,29.66,10,9,1,29,13,37,0.05,8,Rain-Snow,319
2013-10-21,46,37,27,43,36,24,92,89,85,30.04,29.92,29.82,10,9,5,16,6,23,0.07,8,Rain-Snow,288
2013-10-22,45,40,34,38,34,32,92,79,65,30.12,30.05,29.92,10,10,7,18,7,24,0.01,7,Rain,326
2013-10-23,42,33,23,38,32,21,92,78,64,30.34,30.15,29.99,10,8,1,16,9,22,T,7,Rain,342
2013-10-24,43,32,21,30,24,19,92,73,53,30.39,30.33,30.20,10,10,10,15,5,20,0.00,4,,252
2013-10-25,62,47,32,41,32,23,89,61,33,30.19,30.07,29.99,10,10,10,23,14,28,0.00,0,,282
2013-10-26,56,40,23,33,25,17,88,56,24,30.31,30.15,29.88,10,10,10,14,7,18,0.00,0,,258
2013-10-27,48,37,26,34,29,21,92,73,53,30.37,30.03,29.83,10,10,10,25,14,30,0.00,4,,27
2013-10-28,28,25,22,21,19,15,88,76,63,30.53,30.42,30.32,10,7,0,20,12,23,0.13,8,Fog-Snow,86
2013-10-29,31,27,22,27,23,19,92,85,78,30.40,30.21,29.99,10,8,1,15,9,17,0.01,8,Snow,140
2013-10-30,41,35,28,34,28,25,92,83,73,30.03,29.85,29.68,10,9,2,20,8,23,0.00,6,,216
2013-10-31,49,39,28,35,30,25,85,71,56,29.69,29.63,29.58,10,9,5,24,14,30,T,4,Rain,283